Time;durP1;ratioP1;P1;durP2;ratioP2;P2;SDS_P1;SDS_P2;PMS_P1;PMS_P2;Temp;Humidity;BMP_temperature;BMP_pressure;BME280_temperature;BME280_humidity;BME280_pressure;Samples;Min_cycle;Max_cycle;Signal;HPM_P1;HPM_P2
2022/03/29 00:01:49;;;;;;;16.45;9.15;;;;;;;;;;5021929;28;20053;-53
2022/03/29 00:04:16;;;;;;;15.00;8.90;;;;;;;;;;5005604;28;20034;-53
2022/03/29 00:06:41;;;;;;;14.00;8.40;;;;;;;;;;5005702;28;20277;-52
2022/03/29 00:09:06;;;;;;;14.52;8.70;;;;;;;;;;5005677;28;20061;-53
2022/03/29 00:11:32;;;;;;;15.00;8.70;;;;;;;;;;5025413;28;20021;-52
2022/03/29 00:13:57;;;;;;;14.30;8.57;;;;;;;;;;5030160;28;20283;-52
2022/03/29 00:20:02;;;;;;;16.95;9.13;;;;;;;;;;5031563;28;20371;-53
2022/03/29 00:22:27;;;;;;;15.20;8.70;;;;;;;;;;4996337;28;20034;-51
2022/03/29 00:24:53;;;;;;;16.17;9.05;;;;;;;;;;5007017;28;20053;-52
2022/03/29 00:27:18;;;;;;;17.27;9.88;;;;;;;;;;5007651;28;20102;-51
2022/03/29 00:29:44;;;;;;;14.43;8.52;;;;;;;;;;5006799;28;20468;-51
2022/03/29 00:32:10;;;;;;;14.67;9.00;;;;;;;;;;5005254;28;20030;-51
2022/03/29 00:34:36;;;;;;;14.70;8.43;;;;;;;;;;5004357;28;20283;-51
2022/03/29 00:37:02;;;;;;;16.38;8.75;;;;;;;;;;5004148;28;20018;-51
2022/03/29 00:39:28;;;;;;;14.60;8.60;;;;;;;;;;5003724;28;20551;-51
2022/03/29 00:41:53;;;;;;;14.13;8.25;;;;;;;;;;5019834;28;20014;-51
2022/03/29 00:44:18;;;;;;;15.48;8.68;;;;;;;;;;5001515;28;20092;-51
2022/03/29 00:46:43;;;;;;;14.03;8.07;;;;;;;;;;5003167;28;20033;-51
2022/03/29 00:49:09;;;;;;;13.05;8.40;;;;;;;;;;5002799;28;20271;-51
2022/03/29 00:51:35;;;;;;;14.55;8.48;;;;;;;;;;5002831;28;20038;-51
2022/03/29 00:54:00;;;;;;;15.20;9.02;;;;;;;;;;5003338;28;20030;-52
2022/03/29 00:56:25;;;;;;;17.20;9.20;;;;;;;;;;5003309;28;20030;-51
2022/03/29 00:58:51;;;;;;;16.90;9.93;;;;;;;;;;5003222;28;20792;-52
2022/03/29 01:01:16;;;;;;;17.17;9.07;;;;;;;;;;5003302;28;20489;-52
2022/03/29 01:03:41;;;;;;;16.92;9.43;;;;;;;;;;5003456;28;20022;-53
2022/03/29 01:06:08;;;;;;;13.87;8.53;;;;;;;;;;5023621;28;20235;-51
2022/03/29 01:08:34;;;;;;;15.30;8.52;;;;;;;;;;5005826;28;20283;-51
2022/03/29 01:10:59;;;;;;;14.95;9.20;;;;;;;;;;5023691;28;20037;-52
2022/03/29 01:13:24;;;;;;;14.88;8.93;;;;;;;;;;5023322;28;20040;-52
2022/03/29 01:15:50;;;;;;;15.90;8.63;;;;;;;;;;5023376;28;20025;-52
2022/03/29 01:18:16;;;;;;;14.63;8.75;;;;;;;;;;5023307;28;20064;-51
2022/03/29 01:20:41;;;;;;;16.05;9.60;;;;;;;;;;5005502;28;20108;-51
2022/03/29 01:23:06;;;;;;;16.17;8.93;;;;;;;;;;4992690;28;20459;-52
2022/03/29 01:25:35;;;;;;;14.70;8.17;;;;;;;;;;5003557;28;20030;-51
2022/03/29 01:28:01;;;;;;;15.85;8.90;;;;;;;;;;5003872;28;20351;-52
2022/03/29 01:30:26;;;;;;;16.88;9.38;;;;;;;;;;5003650;28;20040;-51
2022/03/29 01:32:52;;;;;;;16.33;8.67;;;;;;;;;;5003271;28;20038;-52
2022/03/29 01:35:19;;;;;;;17.23;9.10;;;;;;;;;;5003448;28;20342;-52
2022/03/29 01:37:44;;;;;;;14.50;8.48;;;;;;;;;;5003299;28;20034;-51
2022/03/29 01:40:11;;;;;;;14.20;8.07;;;;;;;;;;5008834;28;20466;-52
2022/03/29 01:42:37;;;;;;;16.50;8.82;;;;;;;;;;5014147;28;20148;-52
2022/03/29 01:45:02;;;;;;;16.35;9.07;;;;;;;;;;5003210;28;20492;-51
2022/03/29 01:47:28;;;;;;;14.65;8.55;;;;;;;;;;5002237;28;20053;-51
2022/03/29 01:49:53;;;;;;;16.77;8.93;;;;;;;;;;5002947;28;20029;-51
2022/03/29 01:52:19;;;;;;;15.30;9.38;;;;;;;;;;5003156;28;20946;-51
2022/03/29 01:54:45;;;;;;;17.85;9.82;;;;;;;;;;5003036;28;20048;-52
2022/03/29 01:57:10;;;;;;;16.65;9.25;;;;;;;;;;5002949;28;20056;-49
2022/03/29 02:02:19;;;;;;;17.08;9.27;;;;;;;;;;5001181;28;20068;-51
2022/03/29 02:04:44;;;;;;;16.70;9.10;;;;;;;;;;4985447;28;20045;-51
2022/03/29 02:07:10;;;;;;;17.90;10.18;;;;;;;;;;5002811;28;20265;-52
2022/03/29 02:09:35;;;;;;;16.67;9.48;;;;;;;;;;5002722;28;20068;-52
2022/03/29 02:12:01;;;;;;;16.15;9.38;;;;;;;;;;5002847;28;20571;-51
2022/03/29 02:14:27;;;;;;;18.33;10.32;;;;;;;;;;5002900;28;20026;-52
2022/03/29 02:16:52;;;;;;;17.37;9.40;;;;;;;;;;5002868;28;20030;-52
2022/03/29 02:19:17;;;;;;;15.57;9.40;;;;;;;;;;5002476;28;20307;-51
2022/03/29 02:21:42;;;;;;;15.20;9.13;;;;;;;;;;5002566;28;20014;-51
2022/03/29 02:24:08;;;;;;;15.43;9.93;;;;;;;;;;5022504;28;20518;-51
2022/03/29 02:26:33;;;;;;;18.03;9.67;;;;;;;;;;5022214;28;20014;-51
2022/03/29 02:28:58;;;;;;;15.30;9.00;;;;;;;;;;5022416;28;20029;-51
2022/03/29 02:31:23;;;;;;;15.77;9.17;;;;;;;;;;5022250;28;20791;-52
2022/03/29 02:33:49;;;;;;;16.13;9.20;;;;;;;;;;5021853;28;20695;-51
2022/03/29 02:36:16;;;;;;;14.30;9.30;;;;;;;;;;5022241;28;20535;-52
2022/03/29 02:38:41;;;;;;;15.52;8.63;;;;;;;;;;5022179;28;20029;-51
2022/03/29 02:41:06;;;;;;;15.80;9.03;;;;;;;;;;5022002;28;20025;-51
2022/03/29 02:43:31;;;;;;;16.65;9.10;;;;;;;;;;5005513;28;20284;-50
2022/03/29 02:45:57;;;;;;;16.93;9.37;;;;;;;;;;5002254;28;20025;-52
2022/03/29 02:48:22;;;;;;;16.23;9.23;;;;;;;;;;5002247;28;20356;-53
2022/03/29 02:50:47;;;;;;;15.13;8.90;;;;;;;;;;5002503;28;20065;-53
2022/03/29 02:53:15;;;;;;;16.63;9.93;;;;;;;;;;5002637;28;20308;-50
2022/03/29 02:55:41;;;;;;;16.33;9.45;;;;;;;;;;5002146;28;20014;-51
2022/03/29 02:58:06;;;;;;;15.73;9.45;;;;;;;;;;5002554;28;20104;-51
2022/03/29 03:00:32;;;;;;;17.25;10.00;;;;;;;;;;5010578;28;20112;-51
2022/03/29 03:02:57;;;;;;;15.55;8.98;;;;;;;;;;5010285;28;20041;-50
2022/03/29 03:05:26;;;;;;;17.03;9.20;;;;;;;;;;5002436;28;20026;-51
2022/03/29 03:07:51;;;;;;;17.55;9.80;;;;;;;;;;5003661;28;20291;-52
2022/03/29 03:10:16;;;;;;;16.80;10.07;;;;;;;;;;5006264;28;20409;-52
2022/03/29 03:12:42;;;;;;;16.30;9.90;;;;;;;;;;5006199;28;20038;-52
2022/03/29 03:15:08;;;;;;;16.70;9.05;;;;;;;;;;5006855;28;20273;-52
2022/03/29 03:17:33;;;;;;;15.20;8.57;;;;;;;;;;4988869;28;20453;-50
2022/03/29 03:19:58;;;;;;;14.93;8.77;;;;;;;;;;5006823;28;20041;-51
2022/03/29 03:22:24;;;;;;;16.48;9.35;;;;;;;;;;5006688;28;20283;-50
2022/03/29 03:24:49;;;;;;;16.38;9.02;;;;;;;;;;5008499;28;20029;-51
2022/03/29 03:27:16;;;;;;;14.93;8.32;;;;;;;;;;5025850;28;20057;-51
2022/03/29 03:29:41;;;;;;;15.05;8.30;;;;;;;;;;5025668;28;20112;-52
2022/03/29 03:32:07;;;;;;;15.00;8.68;;;;;;;;;;5025327;28;20576;-51
2022/03/29 03:34:32;;;;;;;15.88;8.98;;;;;;;;;;5025270;28;20033;-52
2022/03/29 03:36:58;;;;;;;15.57;8.50;;;;;;;;;;5025804;28;20029;-52
2022/03/29 03:39:23;;;;;;;13.80;8.15;;;;;;;;;;5025762;28;20359;-52
2022/03/29 03:41:49;;;;;;;13.50;8.15;;;;;;;;;;5023091;28;20116;-52
2022/03/29 03:44:14;;;;;;;12.17;7.90;;;;;;;;;;5005260;28;20394;-52
2022/03/29 03:46:39;;;;;;;15.82;8.65;;;;;;;;;;5004117;28;20480;-52
2022/03/29 03:49:05;;;;;;;13.65;8.02;;;;;;;;;;5011132;28;20505;-52
2022/03/29 03:51:30;;;;;;;14.55;8.80;;;;;;;;;;5005333;28;20029;-51
2022/03/29 03:53:55;;;;;;;13.48;8.35;;;;;;;;;;5005357;28;20026;-52
2022/03/29 03:56:21;;;;;;;13.80;8.27;;;;;;;;;;4987952;28;20098;-52
2022/03/29 03:58:46;;;;;;;16.63;8.20;;;;;;;;;;5005503;28;20269;-52
2022/03/29 04:01:12;;;;;;;15.80;8.38;;;;;;;;;;5018679;28;20724;-52
2022/03/29 04:03:38;;;;;;;13.77;8.10;;;;;;;;;;5008097;28;20022;-52
2022/03/29 04:06:03;;;;;;;13.55;8.05;;;;;;;;;;5005578;28;20122;-52
2022/03/29 04:08:28;;;;;;;15.03;8.17;;;;;;;;;;5005128;28;20078;-51
2022/03/29 04:10:53;;;;;;;13.77;8.20;;;;;;;;;;5005285;28;20759;-52
2022/03/29 04:13:19;;;;;;;12.53;7.90;;;;;;;;;;5005414;28;20136;-53
2022/03/29 04:15:45;;;;;;;14.10;8.32;;;;;;;;;;5005270;28;20699;-52
2022/03/29 04:18:10;;;;;;;13.70;7.65;;;;;;;;;;5005200;28;20517;-52
2022/03/29 04:20:35;;;;;;;15.63;7.83;;;;;;;;;;5005168;28;20068;-52
2022/03/29 04:23:00;;;;;;;14.53;8.00;;;;;;;;;;5005183;28;20017;-51
2022/03/29 04:25:26;;;;;;;13.67;8.00;;;;;;;;;;5005389;28;20338;-52
2022/03/29 04:27:51;;;;;;;12.93;7.87;;;;;;;;;;5004482;28;20305;-52
2022/03/29 04:30:16;;;;;;;13.07;7.63;;;;;;;;;;5005564;28;20269;-52
2022/03/29 04:32:41;;;;;;;13.18;7.82;;;;;;;;;;5004928;28;20087;-52
2022/03/29 04:35:07;;;;;;;13.03;7.80;;;;;;;;;;5005129;28;20026;-52
2022/03/29 04:37:32;;;;;;;14.15;8.07;;;;;;;;;;5005338;28;21068;-52
2022/03/29 04:39:57;;;;;;;12.10;7.72;;;;;;;;;;5007035;28;20025;-51
2022/03/29 04:42:23;;;;;;;13.27;7.87;;;;;;;;;;5018537;28;20525;-51
2022/03/29 04:44:48;;;;;;;13.60;7.70;;;;;;;;;;5004639;28;20965;-51
2022/03/29 04:47:13;;;;;;;13.90;7.80;;;;;;;;;;5004811;28;20029;-52
2022/03/29 04:49:39;;;;;;;13.90;7.93;;;;;;;;;;5003322;28;20334;-52
2022/03/29 04:52:06;;;;;;;15.77;7.90;;;;;;;;;;5003227;28;20033;-52
2022/03/29 04:54:31;;;;;;;13.73;7.93;;;;;;;;;;5003219;28;20052;-51
2022/03/29 04:56:56;;;;;;;16.10;8.35;;;;;;;;;;5002214;28;20167;-51
2022/03/29 04:59:22;;;;;;;12.15;7.10;;;;;;;;;;5001610;28;20473;-52
2022/03/29 05:01:47;;;;;;;12.27;7.40;;;;;;;;;;5002514;28;20786;-51
2022/03/29 05:04:12;;;;;;;12.97;7.63;;;;;;;;;;5002694;28;20703;-52
2022/03/29 05:06:37;;;;;;;13.82;7.32;;;;;;;;;;5002692;28;20452;-51
2022/03/29 05:09:03;;;;;;;13.63;7.30;;;;;;;;;;5002587;28;20044;-51
2022/03/29 05:11:29;;;;;;;11.95;7.47;;;;;;;;;;5002692;28;20365;-51
2022/03/29 05:13:54;;;;;;;14.18;7.85;;;;;;;;;;5003793;28;20038;-51
2022/03/29 05:16:19;;;;;;;13.63;7.83;;;;;;;;;;5003818;28;20406;-52
2022/03/29 05:18:45;;;;;;;12.60;7.18;;;;;;;;;;5003775;28;20424;-52
2022/03/29 05:21:10;;;;;;;13.38;7.60;;;;;;;;;;5016723;28;20040;-53
2022/03/29 05:23:36;;;;;;;13.27;7.37;;;;;;;;;;5007124;28;20152;-52
2022/03/29 05:26:01;;;;;;;12.00;6.80;;;;;;;;;;5002903;28;20288;-51
2022/03/29 05:28:26;;;;;;;11.60;6.77;;;;;;;;;;5003020;28;20482;-51
2022/03/29 05:30:51;;;;;;;10.70;6.50;;;;;;;;;;5002455;28;20703;-52
2022/03/29 05:33:18;;;;;;;11.40;6.78;;;;;;;;;;5002685;28;20296;-51
2022/03/29 05:35:43;;;;;;;12.95;7.40;;;;;;;;;;5003198;28;20033;-51
2022/03/29 05:38:08;;;;;;;14.68;7.35;;;;;;;;;;4984626;28;20061;-52
2022/03/29 05:40:34;;;;;;;13.23;7.37;;;;;;;;;;5004896;28;20064;-52
2022/03/29 05:42:59;;;;;;;11.88;6.47;;;;;;;;;;5003131;28;20269;-51
2022/03/29 05:45:25;;;;;;;12.38;6.32;;;;;;;;;;5002961;28;20025;-51
2022/03/29 05:50:34;;;;;;;10.63;6.55;;;;;;;;;;5003401;28;20112;-51
2022/03/29 05:53:00;;;;;;;10.35;6.63;;;;;;;;;;4985721;28;20129;-51
2022/03/29 05:55:26;;;;;;;12.30;7.13;;;;;;;;;;4985620;28;20488;-52
2022/03/29 05:57:52;;;;;;;12.73;7.40;;;;;;;;;;5002396;28;20682;-52
2022/03/29 06:00:17;;;;;;;13.77;7.65;;;;;;;;;;5005986;28;20032;-52
2022/03/29 06:02:43;;;;;;;13.25;7.30;;;;;;;;;;5001748;28;20034;-53
2022/03/29 06:05:09;;;;;;;12.20;6.68;;;;;;;;;;5003414;28;20021;-50
2022/03/29 06:07:34;;;;;;;14.30;7.90;;;;;;;;;;5002377;28;20046;-55
2022/03/29 06:09:59;;;;;;;11.10;6.10;;;;;;;;;;5002934;28;20068;-53
2022/03/29 06:12:25;;;;;;;11.88;6.82;;;;;;;;;;5002997;28;21049;-51
2022/03/29 06:14:50;;;;;;;11.27;6.97;;;;;;;;;;5002513;28;20075;-52
2022/03/29 06:17:16;;;;;;;12.70;6.47;;;;;;;;;;5003575;28;20060;-53
2022/03/29 06:19:42;;;;;;;12.02;6.93;;;;;;;;;;5001693;28;20018;-52
2022/03/29 06:22:07;;;;;;;11.18;6.60;;;;;;;;;;5000745;28;20029;-53
2022/03/29 06:24:32;;;;;;;12.18;7.43;;;;;;;;;;5002039;28;20112;-52
2022/03/29 06:26:58;;;;;;;13.25;7.50;;;;;;;;;;5001549;28;20080;-52
2022/03/29 06:29:23;;;;;;;12.52;6.72;;;;;;;;;;5003544;28;20025;-51
2022/03/29 06:31:49;;;;;;;14.43;7.00;;;;;;;;;;5006051;28;20087;-52
2022/03/29 06:34:14;;;;;;;12.67;6.40;;;;;;;;;;5004014;28;20272;-51
2022/03/29 06:36:41;;;;;;;11.32;6.72;;;;;;;;;;5003160;28;20287;-52
2022/03/29 06:39:08;;;;;;;13.43;7.55;;;;;;;;;;5002930;28;20018;-51
2022/03/29 06:41:34;;;;;;;12.80;6.15;;;;;;;;;;5000824;28;20014;-51
2022/03/29 06:43:59;;;;;;;11.93;7.18;;;;;;;;;;4985399;28;20404;-51
2022/03/29 06:46:25;;;;;;;14.63;7.18;;;;;;;;;;5001416;28;20022;-51
2022/03/29 06:48:50;;;;;;;11.98;6.82;;;;;;;;;;5000006;28;20680;-51
2022/03/29 06:51:16;;;;;;;12.25;6.40;;;;;;;;;;4999423;28;20040;-51
2022/03/29 06:53:42;;;;;;;11.15;6.43;;;;;;;;;;4981845;28;20476;-52
2022/03/29 06:56:07;;;;;;;11.10;6.70;;;;;;;;;;5000209;28;20097;-52
2022/03/29 06:58:33;;;;;;;14.48;7.15;;;;;;;;;;4999721;28;20018;-51
2022/03/29 07:00:58;;;;;;;11.98;6.85;;;;;;;;;;4999904;28;20052;-52
2022/03/29 07:03:24;;;;;;;13.53;7.20;;;;;;;;;;4999461;28;20025;-51
2022/03/29 07:05:49;;;;;;;10.43;6.35;;;;;;;;;;4999360;28;20285;-51
2022/03/29 07:08:16;;;;;;;13.38;6.88;;;;;;;;;;4999444;28;20478;-54
2022/03/29 07:13:25;;;;;;;11.75;6.65;;;;;;;;;;5000161;28;20036;-51
2022/03/29 07:15:51;;;;;;;13.45;6.63;;;;;;;;;;5000254;28;20477;-51
2022/03/29 07:18:16;;;;;;;14.32;8.07;;;;;;;;;;5000381;28;20025;-54
2022/03/29 07:20:41;;;;;;;12.50;6.78;;;;;;;;;;5003240;28;20025;-52
2022/03/29 07:23:07;;;;;;;13.07;6.67;;;;;;;;;;5000749;28;20029;-52
2022/03/29 07:25:32;;;;;;;11.35;6.05;;;;;;;;;;5000709;28;20029;-52
2022/03/29 07:27:58;;;;;;;13.60;7.82;;;;;;;;;;5000033;28;20863;-52
2022/03/29 07:30:23;;;;;;;11.15;6.50;;;;;;;;;;4984567;28;20489;-51
2022/03/29 07:32:50;;;;;;;13.33;7.20;;;;;;;;;;5002120;28;20038;-52
2022/03/29 07:35:16;;;;;;;12.32;7.18;;;;;;;;;;5002375;28;20676;-52
2022/03/29 07:37:41;;;;;;;11.07;6.13;;;;;;;;;;5002165;28;20025;-53
2022/03/29 07:40:08;;;;;;;11.00;5.87;;;;;;;;;;5006060;28;20073;-51
2022/03/29 07:42:35;;;;;;;13.02;7.57;;;;;;;;;;4997387;28;20279;-53
2022/03/29 07:45:01;;;;;;;11.30;6.75;;;;;;;;;;5001891;28;20014;-54
2022/03/29 07:47:26;;;;;;;11.77;6.75;;;;;;;;;;4997094;28;20026;-51
2022/03/29 07:49:51;;;;;;;13.30;7.00;;;;;;;;;;4961676;28;20055;-51
2022/03/29 07:52:18;;;;;;;10.43;5.80;;;;;;;;;;5001375;28;20719;-52
2022/03/29 07:54:43;;;;;;;13.07;6.75;;;;;;;;;;5000231;28;20501;-51
2022/03/29 07:57:09;;;;;;;12.87;7.17;;;;;;;;;;5004539;28;20021;-52
2022/03/29 07:59:38;;;;;;;11.55;6.55;;;;;;;;;;5004985;28;20763;-53
2022/03/29 08:02:06;;;;;;;12.05;6.10;;;;;;;;;;4987144;28;20013;-52
2022/03/29 08:04:32;;;;;;;11.88;6.05;;;;;;;;;;5004706;28;20041;-51
2022/03/29 08:06:57;;;;;;;11.27;7.43;;;;;;;;;;5006174;28;20025;-51
2022/03/29 08:09:22;;;;;;;13.32;6.78;;;;;;;;;;5005449;28;20061;-53
2022/03/29 08:11:48;;;;;;;11.13;6.35;;;;;;;;;;5005599;28;20121;-53
2022/03/29 08:14:14;;;;;;;12.18;6.88;;;;;;;;;;4994328;28;20038;-53
2022/03/29 08:16:40;;;;;;;13.57;7.05;;;;;;;;;;4984022;28;20023;-53
2022/03/29 08:19:06;;;;;;;11.77;6.35;;;;;;;;;;4984315;28;20026;-54
2022/03/29 08:24:15;;;;;;;16.33;8.07;;;;;;;;;;4969927;28;20302;-53
2022/03/29 08:26:40;;;;;;;15.27;8.00;;;;;;;;;;4984594;28;20030;-53
2022/03/29 08:29:06;;;;;;;13.97;8.10;;;;;;;;;;4984278;28;20739;-53
2022/03/29 08:31:31;;;;;;;11.60;7.47;;;;;;;;;;4983457;28;20523;-53
2022/03/29 08:33:57;;;;;;;13.48;7.72;;;;;;;;;;4984367;28;20285;-53
2022/03/29 08:36:22;;;;;;;11.53;7.00;;;;;;;;;;4985603;28;20035;-53
2022/03/29 08:38:47;;;;;;;11.30;7.03;;;;;;;;;;4979167;28;20278;-53
2022/03/29 08:41:12;;;;;;;15.03;8.00;;;;;;;;;;4965648;28;20270;-52
2022/03/29 08:43:37;;;;;;;11.77;7.37;;;;;;;;;;4981905;28;20278;-53
2022/03/29 08:46:03;;;;;;;15.15;8.25;;;;;;;;;;4951620;28;20281;-52
2022/03/29 08:48:28;;;;;;;13.57;7.25;;;;;;;;;;4985314;28;20042;-53
2022/03/29 08:50:54;;;;;;;16.88;9.55;;;;;;;;;;4967554;28;20034;-53
2022/03/29 08:53:20;;;;;;;12.38;7.32;;;;;;;;;;4985039;28;20721;-53
2022/03/29 08:55:45;;;;;;;14.27;8.25;;;;;;;;;;4984508;28;20026;-53
2022/03/29 08:58:11;;;;;;;13.88;7.70;;;;;;;;;;4985136;28;20080;-55
2022/03/29 09:00:36;;;;;;;15.15;8.10;;;;;;;;;;4977453;28;20449;-53
2022/03/29 09:03:01;;;;;;;14.07;7.87;;;;;;;;;;4975965;28;20018;-53
2022/03/29 09:05:28;;;;;;;15.40;8.90;;;;;;;;;;4982785;28;20033;-53
2022/03/29 09:07:54;;;;;;;14.27;8.15;;;;;;;;;;4989538;28;20053;-53
2022/03/29 09:10:21;;;;;;;15.73;8.50;;;;;;;;;;4995103;28;20022;-52
2022/03/29 09:12:46;;;;;;;13.35;7.80;;;;;;;;;;5001365;28;20476;-52
2022/03/29 09:15:12;;;;;;;12.82;7.35;;;;;;;;;;5004397;28;20021;-53
2022/03/29 09:17:41;;;;;;;13.27;7.80;;;;;;;;;;5004443;28;20405;-52
2022/03/29 09:20:07;;;;;;;12.77;7.45;;;;;;;;;;5004205;28;20030;-51
2022/03/29 09:22:34;;;;;;;12.93;7.80;;;;;;;;;;5003729;28;20508;-50
2022/03/29 09:24:59;;;;;;;12.65;7.55;;;;;;;;;;4997631;28;20025;-51
2022/03/29 09:27:25;;;;;;;15.73;7.80;;;;;;;;;;4998116;28;20025;-52
2022/03/29 09:30:04;;;;;;;11.43;6.77;;;;;;;;;;5003176;28;20268;-53
2022/03/29 09:32:30;;;;;;;16.20;8.23;;;;;;;;;;5003626;28;21035;-52
2022/03/29 09:35:04;;;;;;;15.15;7.88;;;;;;;;;;4988670;28;20022;-51
2022/03/29 09:37:34;;;;;;;12.93;7.68;;;;;;;;;;4985844;28;20465;-52
2022/03/29 09:39:59;;;;;;;15.10;8.27;;;;;;;;;;5002297;28;20127;-52
2022/03/29 09:42:24;;;;;;;11.32;6.10;;;;;;;;;;5003599;28;20917;-51
2022/03/29 09:44:51;;;;;;;13.30;7.43;;;;;;;;;;5003478;28;20018;-51
2022/03/29 09:47:21;;;;;;;12.60;7.53;;;;;;;;;;5002182;28;20088;-51
2022/03/29 09:49:55;;;;;;;13.25;6.68;;;;;;;;;;5003096;28;20076;-51
2022/03/29 09:52:24;;;;;;;14.50;7.30;;;;;;;;;;5003247;28;20103;-51
2022/03/29 09:55:05;;;;;;;12.73;7.10;;;;;;;;;;5003157;28;20056;-51
2022/03/29 09:57:37;;;;;;;11.38;6.68;;;;;;;;;;5003735;28;20087;-56
2022/03/29 10:00:03;;;;;;;12.93;7.68;;;;;;;;;;5006188;28;21250;-52
2022/03/29 10:02:36;;;;;;;14.52;7.70;;;;;;;;;;4997378;28;20042;-52
2022/03/29 10:05:01;;;;;;;12.52;6.32;;;;;;;;;;4988205;28;20037;-52
2022/03/29 10:07:26;;;;;;;14.50;6.83;;;;;;;;;;4985193;28;20141;-51
2022/03/29 10:09:51;;;;;;;12.57;7.28;;;;;;;;;;4984446;28;20284;-52
2022/03/29 10:12:19;;;;;;;14.00;7.30;;;;;;;;;;4999737;28;20425;-52
2022/03/29 10:14:45;;;;;;;14.65;7.75;;;;;;;;;;4984596;28;20021;-52
2022/03/29 10:17:11;;;;;;;11.30;6.93;;;;;;;;;;4983945;28;20026;-52
2022/03/29 10:19:36;;;;;;;11.23;6.75;;;;;;;;;;5002151;28;20022;-53
2022/03/29 10:22:02;;;;;;;12.35;6.82;;;;;;;;;;5004241;28;20335;-52
2022/03/29 10:24:29;;;;;;;13.88;6.70;;;;;;;;;;5003344;28;20030;-52
2022/03/29 10:26:56;;;;;;;11.60;6.43;;;;;;;;;;5002756;28;20018;-52
2022/03/29 10:29:21;;;;;;;14.23;6.50;;;;;;;;;;5002584;28;20026;-53
2022/03/29 10:31:56;;;;;;;13.25;7.38;;;;;;;;;;4980896;28;20038;-52
2022/03/29 10:34:24;;;;;;;11.30;6.18;;;;;;;;;;5002517;28;20141;-52
2022/03/29 10:36:59;;;;;;;11.98;6.97;;;;;;;;;;5003101;28;20026;-52
2022/03/29 10:39:30;;;;;;;10.88;6.50;;;;;;;;;;5002770;28;20052;-52
2022/03/29 10:41:55;;;;;;;14.23;8.02;;;;;;;;;;4968726;28;20023;-52
2022/03/29 10:44:21;;;;;;;15.60;8.80;;;;;;;;;;5002921;28;20030;-52
2022/03/29 10:46:47;;;;;;;12.50;8.10;;;;;;;;;;5002719;28;20033;-53
2022/03/29 10:49:21;;;;;;;13.27;7.40;;;;;;;;;;5002737;28;20427;-52
2022/03/29 10:51:50;;;;;;;12.50;6.85;;;;;;;;;;5002158;28;20030;-53
2022/03/29 10:54:29;;;;;;;10.65;6.32;;;;;;;;;;4987565;28;20091;-53
2022/03/29 10:56:55;;;;;;;13.15;6.97;;;;;;;;;;5002599;28;20029;-51
2022/03/29 10:59:20;;;;;;;10.73;6.43;;;;;;;;;;4984029;28;20109;-52
2022/03/29 11:01:45;;;;;;;11.53;7.20;;;;;;;;;;5000836;28;20779;-52
2022/03/29 11:04:19;;;;;;;13.85;7.45;;;;;;;;;;4970707;28;20497;-52
2022/03/29 11:07:03;;;;;;;13.43;7.03;;;;;;;;;;4983341;28;20022;-52
2022/03/29 11:09:29;;;;;;;13.45;7.13;;;;;;;;;;4996655;28;20041;-52
2022/03/29 11:11:54;;;;;;;13.60;7.50;;;;;;;;;;5002238;28;20034;-51
2022/03/29 11:14:36;;;;;;;13.43;7.60;;;;;;;;;;5002489;28;20268;-51
2022/03/29 11:17:04;;;;;;;11.25;6.80;;;;;;;;;;5002566;28;20030;-51
2022/03/29 11:19:38;;;;;;;14.65;7.15;;;;;;;;;;5002741;28;20029;-54
2022/03/29 11:22:28;;;;;;;14.25;7.97;;;;;;;;;;5001959;28;20044;-52
2022/03/29 11:24:55;;;;;;;12.43;6.75;;;;;;;;;;4977131;28;20107;-52
2022/03/29 11:27:23;;;;;;;11.38;6.40;;;;;;;;;;5002233;28;20032;-51
2022/03/29 11:29:49;;;;;;;13.68;7.13;;;;;;;;;;5004915;28;20025;-52
2022/03/29 11:32:14;;;;;;;12.95;6.95;;;;;;;;;;5005531;28;20033;-52
2022/03/29 11:34:40;;;;;;;12.32;6.68;;;;;;;;;;5006338;28;20033;-52
2022/03/29 11:37:06;;;;;;;14.20;7.43;;;;;;;;;;5006306;28;20108;-52
2022/03/29 11:39:31;;;;;;;11.25;6.78;;;;;;;;;;5004254;28;20129;-52
2022/03/29 11:41:56;;;;;;;12.32;6.82;;;;;;;;;;5002811;28;20493;-53
2022/03/29 11:44:23;;;;;;;12.90;7.20;;;;;;;;;;5005499;28;20036;-52
2022/03/29 11:46:49;;;;;;;12.95;7.13;;;;;;;;;;5004375;28;20092;-53
2022/03/29 11:49:15;;;;;;;11.43;7.10;;;;;;;;;;5001907;28;20033;-51
2022/03/29 11:51:41;;;;;;;11.95;6.60;;;;;;;;;;5006626;28;20069;-53
2022/03/29 11:54:06;;;;;;;12.13;7.07;;;;;;;;;;5006472;28;20516;-52
2022/03/29 11:56:34;;;;;;;12.80;7.25;;;;;;;;;;5006551;28;20280;-52
2022/03/29 11:58:59;;;;;;;11.70;6.93;;;;;;;;;;5006752;28;20063;-52
2022/03/29 12:01:27;;;;;;;14.43;7.05;;;;;;;;;;5019762;28;20029;-52
2022/03/29 12:03:56;;;;;;;13.02;8.27;;;;;;;;;;5009740;28;20026;-51
2022/03/29 12:06:22;;;;;;;14.27;7.13;;;;;;;;;;5006519;28;20077;-52
2022/03/29 12:08:48;;;;;;;14.63;7.97;;;;;;;;;;5007995;28;20049;-52
2022/03/29 12:11:15;;;;;;;12.73;7.10;;;;;;;;;;5003695;28;20034;-51
2022/03/29 12:13:41;;;;;;;11.90;7.43;;;;;;;;;;5007953;28;20030;-53
2022/03/29 12:16:15;;;;;;;13.02;7.65;;;;;;;;;;5007738;28;20184;-55
2022/03/29 12:18:40;;;;;;;13.02;7.70;;;;;;;;;;5008749;28;20033;-51
2022/03/29 12:21:09;;;;;;;13.52;6.90;;;;;;;;;;5010017;28;20022;-53
2022/03/29 12:23:34;;;;;;;11.02;6.63;;;;;;;;;;5003016;28;20271;-53
2022/03/29 12:26:00;;;;;;;12.20;6.70;;;;;;;;;;5011751;28;20497;-52
2022/03/29 12:28:25;;;;;;;11.33;6.47;;;;;;;;;;4994529;28;20277;-52
2022/03/29 12:30:50;;;;;;;9.93;6.63;;;;;;;;;;4995569;28;20355;-51
2022/03/29 12:33:15;;;;;;;10.97;6.40;;;;;;;;;;5012462;28;20124;-52
2022/03/29 12:35:41;;;;;;;10.80;5.90;;;;;;;;;;5009323;28;20339;-53
2022/03/29 12:38:07;;;;;;;10.35;5.80;;;;;;;;;;5007968;28;20780;-52
2022/03/29 12:40:33;;;;;;;12.40;7.35;;;;;;;;;;4992469;28;20470;-52
2022/03/29 12:43:05;;;;;;;11.07;7.27;;;;;;;;;;4990106;28;20117;-53
2022/03/29 12:45:30;;;;;;;13.60;9.63;;;;;;;;;;5006999;28;20260;-52
2022/03/29 12:47:56;;;;;;;12.85;9.77;;;;;;;;;;4988417;28;20125;-52
2022/03/29 12:50:21;;;;;;;12.35;9.60;;;;;;;;;;5008904;28;20030;-51
2022/03/29 12:52:46;;;;;;;12.40;8.23;;;;;;;;;;4980376;28;20535;-51
2022/03/29 12:55:13;;;;;;;15.10;10.90;;;;;;;;;;4997759;28;20509;-52
2022/03/29 12:57:39;;;;;;;14.20;7.68;;;;;;;;;;5004653;28;20057;-51
2022/03/29 13:00:10;;;;;;;12.82;6.97;;;;;;;;;;5006356;28;20553;-52
2022/03/29 13:02:43;;;;;;;12.20;7.82;;;;;;;;;;5017575;28;20018;-52
2022/03/29 13:05:08;;;;;;;11.68;7.45;;;;;;;;;;4981085;28;20685;-51
2022/03/29 13:07:41;;;;;;;12.82;6.50;;;;;;;;;;5002605;28;20054;-50
2022/03/29 13:10:10;;;;;;;13.02;7.88;;;;;;;;;;4985345;28;20029;-52
2022/03/29 13:12:52;;;;;;;12.38;6.43;;;;;;;;;;5003494;28;20037;-53
2022/03/29 13:15:43;;;;;;;10.95;8.25;;;;;;;;;;5003853;28;20018;-50
2022/03/29 13:18:20;;;;;;;12.07;6.25;;;;;;;;;;4971865;28;20063;-51
2022/03/29 13:20:46;;;;;;;9.68;5.28;;;;;;;;;;5012075;28;20520;-52
2022/03/29 13:23:11;;;;;;;9.32;4.47;;;;;;;;;;5012899;28;20040;-51
2022/03/29 13:25:37;;;;;;;9.32;5.10;;;;;;;;;;5004369;28;20100;-50
2022/03/29 13:28:03;;;;;;;10.40;5.53;;;;;;;;;;5004273;28;20030;-51
2022/03/29 13:30:29;;;;;;;11.15;5.35;;;;;;;;;;5003974;28;20018;-51
2022/03/29 13:32:54;;;;;;;10.20;5.28;;;;;;;;;;5003780;28;20345;-51
2022/03/29 13:35:20;;;;;;;11.32;5.63;;;;;;;;;;4986184;28;20160;-52
2022/03/29 13:37:45;;;;;;;11.40;7.53;;;;;;;;;;5004377;28;20505;-51
2022/03/29 13:40:11;;;;;;;11.23;7.55;;;;;;;;;;5003771;28;20432;-52
2022/03/29 13:42:36;;;;;;;11.27;7.22;;;;;;;;;;5003660;28;20057;-52
2022/03/29 13:45:02;;;;;;;8.60;4.72;;;;;;;;;;5003458;28;20013;-51
2022/03/29 13:47:27;;;;;;;11.00;5.65;;;;;;;;;;4981862;28;20032;-53
2022/03/29 13:49:52;;;;;;;8.73;5.30;;;;;;;;;;5002639;28;20240;-52
2022/03/29 13:52:17;;;;;;;11.00;6.60;;;;;;;;;;5001944;28;20037;-51
2022/03/29 13:54:43;;;;;;;12.50;6.53;;;;;;;;;;4998466;28;20052;-53
2022/03/29 13:57:08;;;;;;;10.48;5.72;;;;;;;;;;5002210;28;20084;-52
2022/03/29 13:59:33;;;;;;;13.27;5.30;;;;;;;;;;5002032;28;20060;-52
2022/03/29 14:02:01;;;;;;;14.18;6.90;;;;;;;;;;5003115;28;20269;-53
2022/03/29 14:04:27;;;;;;;10.25;5.38;;;;;;;;;;4982551;28;20038;-53
2022/03/29 14:06:52;;;;;;;14.75;9.90;;;;;;;;;;5002036;28;20018;-52
2022/03/29 14:09:17;;;;;;;10.95;7.32;;;;;;;;;;5001744;28;20052;-54
2022/03/29 14:11:42;;;;;;;12.97;7.10;;;;;;;;;;5001348;28;20033;-54
2022/03/29 14:14:08;;;;;;;11.82;8.30;;;;;;;;;;5001280;28;20269;-51
2022/03/29 14:16:33;;;;;;;14.48;9.85;;;;;;;;;;5001908;28;20101;-52
2022/03/29 14:18:59;;;;;;;8.88;5.53;;;;;;;;;;5001739;28;20034;-52
2022/03/29 14:21:24;;;;;;;9.07;5.07;;;;;;;;;;5015437;28;20032;-51
2022/03/29 14:23:49;;;;;;;6.95;4.93;;;;;;;;;;5005876;28;20273;-53
2022/03/29 14:26:15;;;;;;;8.68;5.57;;;;;;;;;;5003269;28;20033;-52
2022/03/29 14:28:41;;;;;;;8.93;5.20;;;;;;;;;;4985610;28;20022;-52
2022/03/29 14:31:06;;;;;;;9.55;5.65;;;;;;;;;;5002060;28;20414;-51
2022/03/29 14:33:32;;;;;;;7.82;4.65;;;;;;;;;;4999865;28;20033;-52
2022/03/29 14:35:58;;;;;;;10.43;5.47;;;;;;;;;;5002632;28;20022;-51
2022/03/29 14:38:23;;;;;;;9.23;4.68;;;;;;;;;;5002978;28;20545;-51
2022/03/29 14:40:48;;;;;;;7.07;4.45;;;;;;;;;;5002940;28;20029;-51